Latest Weather Observations for Trepell

IDQ60801

Issued at 11:32 am EST Tuesday 27 September 2016 (issued every 30 minutes, with the page automatically refreshed every 10 minutes)

About weather observations | Map of weather stations | Latest weather observations for QLD | Other Formats
Station Details ID: 037036 Name: TREPELL AIRPORT Lat: -21.84 Lon: 140.89 Height: 266.2 m
Data from the previous 72 hours. | See also: Recent months at Trepell
Date/Time
EST
Temp
°C
App
Temp
°C
Dew
Point
°C
Rel
Hum
%
Delta-T
°C
Wind Press
QNH
hPa
Press
MSL
hPa
Rain since
9am
mm
Dir  Spd
km/h
Gust
km/h
Spd
kts
Gust
kts
27/11:00am 23.5 19.5 8.4 38 8.1 SE 19 24 10 13 1017.6 1016.4 0.0
27/10:30am 23.9 20.7 8.3 37 8.4 SE 15 19 8 10 1017.9 1016.7 0.0
27/10:00am 23.7 20.4 8.2 37 8.3 SSE 15 19 8 10 1018.2 1017.0 0.0
27/09:30am 23.8 19.7 6.1 32 9.2 SE 17 22 9 12 1018.4 1017.2 0.0
27/09:00am 24.1 19.5 6.4 32 9.2 SE 20 26 11 14 1018.2 1017.0 0.0
27/08:30am 22.3 18.4 6.9 37 8.0 SSE 17 22 9 12 1018.2 1017.0 0.0
27/08:00am 20.7 18.1 9.3 48 6.1 SSE 13 19 7 10 1017.9 1016.7 0.0
27/07:30am 18.6 17.1 10.4 59 4.5 SSW 9 11 5 6 1017.4 1016.2 0.0
27/07:00am 18.2 17.3 10.6 61 4.1 SW 6 7 3 4 1017.0 1015.8 0.0
27/06:30am 18.2 16.9 9.8 58 4.5 S 7 7 4 4 1016.5 1015.3 0.0
27/06:00am 18.8 16.5 9.0 53 5.2 SE 11 15 6 8 1016.1 1014.9 0.0
27/05:30am 17.2 16.1 9.9 62 3.9 SSW 6 9 3 5 1015.8 1014.7 0.0
27/05:00am 17.4 16.0 9.6 60 4.1 SSW 7 9 4 5 1015.4 1014.2 0.0
27/04:30am 17.9 16.6 10.0 60 4.2 SSW 7 9 4 5 1014.8 1013.6 0.0
27/04:00am 17.9 16.6 10.0 60 4.2 SW 7 9 4 5 1014.9 1013.7 0.0
27/03:30am 17.7 16.6 9.8 60 4.2 SW 6 9 3 5 1014.9 1013.7 0.0
27/03:00am 17.5 15.6 8.9 57 4.5 SSE 9 11 5 6 1015.1 1013.9 0.0
27/02:30am 18.4 16.5 8.9 54 5.0 SSW 9 11 5 6 1015.4 1014.2 0.0
27/02:00am 18.6 16.6 8.6 52 5.2 S 9 11 5 6 1015.4 1014.2 0.0
27/01:30am 17.8 15.9 8.9 56 4.7 SSW 9 11 5 6 1015.5 1014.4 0.0
27/01:00am 18.2 16.5 8.2 52 5.2 SSW 7 9 4 5 1015.5 1014.4 0.0
27/12:30am 18.2 15.9 7.6 50 5.4 S 9 9 5 5 1015.6 1014.5 0.0
27/12:00am 19.3 16.6 7.4 46 6.1 SE 11 13 6 7 1015.6 1014.5 0.0
 
Date/Time
EST
Temp
°C
App
Temp
°C
Dew
Point
°C
Rel
Hum
%
Delta-T
°C
Wind Press
QNH
hPa
Press
MSL
hPa
Rain since
9am
mm
Dir  Spd
km/h
Gust
km/h
Spd
kts
Gust
kts
26/11:30pm 19.5 16.2 6.3 42 6.7 S 13 17 7 9 1016.1 1014.9 0.0
26/11:00pm 19.3 16.5 7.1 45 6.2 ESE 11 13 6 7 1016.2 1015.0 0.0
26/10:30pm 21.4 18.0 6.1 37 7.8 SE 13 17 7 9 1016.2 1015.0 0.0
26/10:00pm 20.9 17.7 6.8 40 7.3 ESE 13 17 7 9 1016.2 1015.0 0.0
26/09:30pm 21.5 17.8 6.2 37 7.8 ESE 15 19 8 10 1016.2 1015.0 0.0
26/09:00pm 21.8 18.5 6.5 37 7.9 ESE 13 19 7 10 1016.1 1014.9 0.0
26/08:30pm 22.3 18.6 6.5 36 8.2 ESE 15 19 8 10 1016.0 1014.8 0.0
26/08:00pm 23.2 20.0 6.9 35 8.5 SE 13 19 7 10 1015.6 1014.5 0.0
26/07:30pm 23.6 20.0 6.8 34 8.8 SE 15 17 8 9 1015.2 1014.0 0.0
26/07:00pm 24.2 21.1 7.4 34 8.9 SE 13 17 7 9 1014.7 1013.5 0.0
26/06:30pm 25.0 21.6 5.7 29 10.0 SE 13 17 7 9 1014.4 1013.2 0.0
26/06:00pm 26.4 22.1 5.4 26 10.9 SE 17 22 9 12 1013.9 1012.7 0.0
26/05:30pm 27.2 22.6 3.7 22 11.9 SE 17 24 9 13 1013.7 1012.5 0.0
26/05:00pm 27.8 23.7 4.2 22 12.1 SSE 15 19 8 10 1013.5 1012.3 0.0
26/04:30pm 28.0 23.5 4.3 22 12.2 SE 17 24 9 13 1013.2 1012.0 0.0
26/04:00pm 28.5 24.5 4.7 22 12.4 S 15 22 8 12 1013.1 1011.9 0.0
26/03:30pm 28.3 24.7 5.2 23 12.1 SE 13 22 7 12 1013.2 1012.0 0.0
26/03:00pm 28.2 23.5 5.1 23 12.1 SSE 19 26 10 14 1013.5 1012.3 0.0
26/02:30pm 27.5 23.1 4.5 23 11.8 SSE 17 28 9 15 1013.6 1012.4 0.0
26/02:00pm 27.4 23.0 4.5 23 11.8 S 17 28 9 15 1014.1 1012.9 0.0
26/01:30pm 26.9 22.2 3.4 22 11.8 S 17 32 9 17 1014.7 1013.5 0.0
26/01:00pm 26.5 22.0 4.3 24 11.3 SSE 17 26 9 14 1015.3 1014.1 0.0
26/12:30pm 26.0 20.9 3.3 23 11.3 SSE 19 33 10 18 1016.1 1014.9 0.0
26/12:00pm 25.0 20.2 4.7 27 10.3 S 19 28 10 15 1016.7 1015.5 0.0
26/11:30am 24.8 20.3 4.0 26 10.4 SSE 17 24 9 13 1017.1 1015.9 0.0
26/11:00am 24.4 20.0 4.7 28 10.0 SSE 17 24 9 13 1017.2 1016.0 0.0
26/10:30am 23.4 18.9 4.4 29 9.5 SE 17 22 9 12 1017.4 1016.2 0.0
26/10:00am 22.7 17.6 3.3 28 9.4 SE 19 24 10 13 1017.5 1016.3 0.0
26/09:30am 21.9 16.9 4.5 32 8.6 SE 20 28 11 15 1017.5 1016.3 0.0
26/09:00am 20.8 14.9 4.0 33 8.2 SE 24 32 13 17 1017.5 1016.3 0.0
26/08:30am 19.7 14.8 5.0 38 7.3 SE 20 28 11 15 1017.5 1016.3 0.0
26/08:00am 18.2 13.3 5.1 42 6.4 SE 20 28 11 15 1017.2 1016.0 0.0
26/07:30am 16.7 12.9 5.9 49 5.3 SSE 15 19 8 10 1016.8 1015.6 0.0
26/07:00am 15.0 12.2 6.8 58 4.1 SSE 11 15 6 8 1016.4 1015.2 0.0
26/06:30am 13.8 10.7 7.1 64 3.3 SSE 13 15 7 8 1016.0 1014.8 0.0
26/06:00am 14.1 11.0 7.2 63 3.4 S 13 17 7 9 1015.8 1014.7 0.0
26/05:30am 14.0 11.3 7.5 65 3.2 S 11 13 6 7 1015.4 1014.2 0.0
26/05:00am 13.9 11.3 7.9 67 3.0 S 11 13 6 7 1014.9 1013.7 0.0
26/04:30am 14.5 12.7 7.8 64 3.4 SSE 7 9 4 5 1015.0 1013.8 0.0
26/04:00am 15.3 12.5 6.8 57 4.2 SSE 11 15 6 8 1014.7 1013.5 0.0
26/03:30am 15.8 12.6 6.8 55 4.5 SSE 13 17 7 9 1014.7 1013.5 0.0
26/03:00am 15.8 12.5 6.5 54 4.6 SSE 13 15 7 8 1014.7 1013.5 0.0
26/02:30am 16.3 13.1 6.7 53 4.8 SSE 13 15 7 8 1014.8 1013.6 0.0
26/02:00am 16.7 14.6 6.8 52 5.0 SSE 7 11 4 6 1015.0 1013.8 0.0
26/01:30am 16.7 14.4 7.6 55 4.6 S 9 11 5 6 1015.3 1014.1 0.0
26/01:00am 17.5 15.0 6.4 48 5.5 SSE 9 9 5 5 1015.4 1014.2 0.0
26/12:30am 17.5 15.3 7.8 53 5.0 SSE 9 13 5 7 1015.5 1014.4 0.0
26/12:00am 18.2 15.5 7.3 49 5.6 SE 11 15 6 8 1015.8 1014.7 0.0
 
Date/Time
EST
Temp
°C
App
Temp
°C
Dew
Point
°C
Rel
Hum
%
Delta-T
°C
Wind Press
QNH
hPa
Press
MSL
hPa
Rain since
9am
mm
Dir  Spd
km/h
Gust
km/h
Spd
kts
Gust
kts
25/11:30pm 18.5 15.9 7.6 49 5.6 SE 11 13 6 7 1016.0 1014.8 0.0
25/11:00pm 19.1 16.5 7.8 48 5.9 SSE 11 13 6 7 1016.3 1015.1 0.0
25/10:30pm 19.2 17.3 9.1 52 5.4 SSE 9 13 5 7 1016.3 1015.1 0.0
25/10:00pm 19.7 17.7 8.7 49 5.8 SSE 9 9 5 5 1016.3 1015.1 0.0
25/09:30pm 19.5 17.8 9.7 53 5.3 SE 9 11 5 6 1016.0 1014.8 0.0
25/09:00pm 20.1 18.6 9.1 49 5.9 ESE 7 9 4 5 1015.6 1014.5 0.0
25/08:30pm 20.6 18.7 9.2 48 6.1 SE 9 11 5 6 1015.4 1014.2 0.0
25/08:00pm 20.9 18.9 8.5 45 6.6 ESE 9 11 5 6 1015.0 1013.8 0.0
25/07:30pm 21.8 19.3 8.0 41 7.3 SSE 11 17 6 9 1014.5 1013.3 0.0
25/07:00pm 22.6 19.4 6.8 36 8.2 SSE 13 15 7 8 1014.0 1012.8 0.0
25/06:30pm 24.1 20.2 5.5 30 9.5 SSE 15 19 8 10 1013.7 1012.5 0.0
25/06:00pm 25.4 21.3 6.1 29 10.1 SSE 17 22 9 12 1013.3 1012.1 0.0
25/05:30pm 26.3 21.3 4.7 25 11.1 SSE 20 26 11 14 1013.0 1011.8 0.0
25/05:00pm 26.4 21.6 4.8 25 11.1 SSE 19 28 10 15 1012.8 1011.6 0.0
25/04:30pm 27.3 22.7 6.7 27 11.0 SSE 20 32 11 17 1012.8 1011.6 0.0
25/04:00pm 26.9 21.3 5.2 25 11.3 SSE 24 32 13 17 1012.7 1011.5 0.0
25/03:30pm 26.9 22.0 5.2 25 11.3 SSE 20 32 11 17 1012.7 1011.5 0.0
25/03:00pm 27.1 22.7 7.5 29 10.6 SSE 20 33 11 18 1012.7 1011.5 0.0
25/02:30pm 26.6 22.4 8.1 31 10.1 SSE 20 35 11 19 1012.9 1011.7 0.0
25/02:00pm 26.6 21.4 7.1 29 10.4 SSE 24 32 13 17 1013.5 1012.3 0.0
25/01:30pm 26.0 20.8 7.1 30 10.1 SSE 24 32 13 17 1014.1 1012.9 0.0
25/01:00pm 26.0 20.6 8.0 32 9.8 SSE 26 33 14 18 1014.3 1013.1 0.0
25/12:30pm 25.2 20.7 8.7 35 9.0 SSE 22 32 12 17 1014.9 1013.7 0.0
25/12:00pm 23.9 19.1 8.7 38 8.2 SE 24 32 13 17 1015.3 1014.1 0.0
25/11:30am 23.3 19.9 10.4 44 7.2 SSE 19 24 10 13 1015.7 1014.6 0.0
25/11:00am 23.0 19.4 10.4 45 7.0 SSE 20 28 11 15 1015.8 1014.7 0.0
25/10:30am 22.0 18.5 10.8 49 6.2 SSE 20 26 11 14 1016.1 1014.9 0.0
25/10:00am 21.4 17.7 11.4 53 5.6 SSE 22 32 12 17 1015.8 1014.7 0.0
25/09:30am 21.3 18.0 11.6 54 5.5 S 20 32 11 17 1015.8 1014.7 0.0
25/09:00am 21.0 17.6 12.4 58 4.9 S 22 28 12 15 1015.7 1014.6 0.0
25/08:30am 21.4 18.3 12.3 56 5.2 S 20 30 11 16 1015.1 1013.9 0.0
25/08:00am 20.5 18.6 13.0 62 4.3 S 15 22 8 12 1014.7 1013.5 0.0
25/07:30am 19.2 17.9 13.6 70 3.2 SSW 13 19 7 10 1014.5 1013.3 0.0
25/07:00am 18.7 17.3 13.3 71 3.1 SSW 13 19 7 10 1013.5 1012.3 0.0
25/06:30am 17.9 16.1 13.4 75 2.6 SSW 15 19 8 10 1013.3 1012.1 0.0
25/06:00am 18.1 16.3 13.4 74 2.7 SSW 15 19 8 10 1012.7 1011.5 0.0
25/05:30am 18.5 17.1 13.4 72 2.9 S 13 17 7 9 1012.4 1011.2 0.0
25/05:00am 18.9 17.2 13.7 72 3.0 SSW 15 19 8 10 1012.1 1010.8 0.0
25/04:30am 19.1 17.9 13.9 72 3.0 SSW 13 17 7 9 1012.0 1010.7 0.0
25/04:00am 19.1 18.3 13.9 72 3.0 SSW 11 15 6 8 1011.7 1010.5 0.0
25/03:30am 19.2 18.4 14.0 72 3.0 SSW 11 15 6 8 1011.8 1010.6 0.0
25/03:00am 18.9 18.1 14.0 73 2.8 SSW 11 13 6 7 1011.6 1010.4 0.0
25/02:30am 18.4 17.8 13.5 73 2.8 SSW 9 11 5 6 1011.4 1010.2 0.0
25/02:00am 18.6 17.9 13.2 71 3.1 SSW 9 11 5 6 1011.7 1010.5 0.0
25/01:30am 19.4 17.9 13.1 67 3.6 SSW 13 17 7 9 1012.0 1010.7 0.0
25/01:00am 19.7 18.5 12.9 65 3.9 S 11 17 6 9 1012.3 1011.1 0.0
25/12:30am 20.2 17.8 12.7 62 4.3 S 17 24 9 13 1012.4 1011.2 0.0
25/12:00am 20.7 17.7 12.7 60 4.6 S 20 28 11 15 1012.6 1011.4 0.0
 
Date/Time
EST
Temp
°C
App
Temp
°C
Dew
Point
°C
Rel
Hum
%
Delta-T
°C
Wind Press
QNH
hPa
Press
MSL
hPa
Rain since
9am
mm
Dir  Spd
km/h
Gust
km/h
Spd
kts
Gust
kts
24/11:30pm 21.0 15.7 12.4 58 4.9 SSW 32 44 17 24 1012.4 1011.2 0.0
24/11:00pm 21.8 15.4 12.1 54 5.5 SSW 37 46 20 25 1012.1 1010.8 0.0
24/10:30pm 22.3 17.1 12.8 55 5.5 SSW 32 46 17 25 1011.4 1010.2 0.0
24/10:18pm 23.1 20.8 13.0 53 5.9 WNW 17 43 9 23 1011.3 1010.1 0.0
24/10:00pm 24.3 22.7 12.9 49 6.7 NNW 13 13 7 7 1010.2 1009.0 0.0
24/09:30pm 24.2 23.7 12.5 48 6.8 WNW 7 9 4 5 1010.2 1009.0 0.0
24/09:00pm 25.5 24.7 13.0 46 7.4 N 9 11 5 6 1010.0 1008.8 0.0
24/08:30pm 25.8 24.5 11.2 40 8.3 N 9 9 5 5 1009.8 1008.6 0.0
24/08:00pm 25.9 24.4 10.5 38 8.7 NNE 9 11 5 6 1009.5 1008.3 0.0
24/07:30pm 27.2 26.1 10.0 34 9.7 NE 6 7 3 4 1009.1 1007.9 0.0
24/07:00pm 27.6 26.8 11.2 36 9.5 NE 6 7 3 4 1008.8 1007.5 0.0
24/06:30pm 29.4 28.1 10.0 30 11.1 N 7 9 4 5 1008.5 1007.2 0.0
24/06:00pm 30.6 29.0 8.9 26 12.2 NNE 7 9 4 5 1008.2 1006.9 0.0
24/05:30pm 31.7 28.8 6.7 21 13.7 NNE 11 19 6 10 1007.8 1006.6 0.0
24/05:00pm 32.2 29.1 7.1 21 13.9 NNE 13 17 7 9 1007.6 1006.4 0.0
24/04:30pm 32.7 29.9 6.8 20 14.3 N 11 17 6 9 1007.4 1006.2 0.0
24/04:00pm 32.5 29.3 6.7 20 14.2 NNE 13 19 7 10 1007.3 1006.1 0.0
24/03:30pm 32.2 28.7 7.1 21 13.8 NE 15 22 8 12 1007.5 1006.3 0.0
24/03:00pm 32.0 28.5 7.0 21 13.8 NE 15 20 8 11 1007.9 1006.7 0.0
24/02:30pm 31.6 28.3 8.0 23 13.2 NE 15 19 8 10 1008.4 1007.1 0.0
24/02:00pm 31.2 28.2 7.6 23 13.1 NNE 13 20 7 11 1009.0 1007.8 0.0
24/01:30pm 30.2 27.9 7.4 24 12.5 N 9 15 5 8 1009.7 1008.5 0.0
24/01:00pm 29.7 26.7 9.3 28 11.5 NNE 15 28 8 15 1010.1 1008.9 0.0
24/12:30pm 28.4 25.5 8.1 28 11.2 N 13 20 7 11 1010.6 1009.4 0.0
24/12:00pm 28.1 24.3 8.9 30 10.7 N 19 24 10 13 1011.0 1009.8 0.0

Other Formats:

Comma delimited format used in spreadsheet applications
http://www.bom.gov.au/fwo/IDQ60801/IDQ60801.94338.axf

JavaScript Object Notation format (JSON) in row-major order
http://www.bom.gov.au/fwo/IDQ60801/IDQ60801.94338.json